sensor_id;sensor_type;location;lat;lon;timestamp;P1;durP1;ratioP1;P2;durP2;ratioP2
56657;SDS011;42530;52.240;19.354;2022-09-01T00:01:27;4.60;;;3.70;;
56657;SDS011;42530;52.240;19.354;2022-09-01T00:03:54;3.70;;;3.40;;
56657;SDS011;42530;52.240;19.354;2022-09-01T00:06:28;4.25;;;3.80;;
56657;SDS011;42530;52.240;19.354;2022-09-01T00:08:57;3.58;;;3.38;;
56657;SDS011;42530;52.240;19.354;2022-09-01T00:11:29;3.95;;;3.65;;
56657;SDS011;42530;52.240;19.354;2022-09-01T00:13:56;3.70;;;3.40;;
56657;SDS011;42530;52.240;19.354;2022-09-01T00:16:22;3.72;;;3.45;;
56657;SDS011;42530;52.240;19.354;2022-09-01T00:18:50;3.90;;;3.60;;
56657;SDS011;42530;52.240;19.354;2022-09-01T00:21:19;4.13;;;3.72;;
56657;SDS011;42530;52.240;19.354;2022-09-01T00:23:46;3.88;;;3.55;;
56657;SDS011;42530;52.240;19.354;2022-09-01T00:26:12;3.42;;;3.22;;
56657;SDS011;42530;52.240;19.354;2022-09-01T00:28:38;4.65;;;3.78;;
56657;SDS011;42530;52.240;19.354;2022-09-01T00:31:05;4.85;;;3.65;;
56657;SDS011;42530;52.240;19.354;2022-09-01T00:33:32;4.63;;;3.70;;
56657;SDS011;42530;52.240;19.354;2022-09-01T00:35:59;6.30;;;3.78;;
56657;SDS011;42530;52.240;19.354;2022-09-01T00:38:25;4.45;;;4.05;;
56657;SDS011;42530;52.240;19.354;2022-09-01T00:40:51;4.70;;;4.30;;
56657;SDS011;42530;52.240;19.354;2022-09-01T00:43:34;4.88;;;4.47;;
56657;SDS011;42530;52.240;19.354;2022-09-01T00:46:27;4.30;;;4.00;;
56657;SDS011;42530;52.240;19.354;2022-09-01T00:48:55;6.15;;;4.35;;
56657;SDS011;42530;52.240;19.354;2022-09-01T00:51:27;4.57;;;4.28;;
56657;SDS011;42530;52.240;19.354;2022-09-01T00:53:53;5.72;;;4.97;;
56657;SDS011;42530;52.240;19.354;2022-09-01T00:56:21;5.75;;;4.82;;
56657;SDS011;42530;52.240;19.354;2022-09-01T00:58:48;7.07;;;4.95;;
56657;SDS011;42530;52.240;19.354;2022-09-01T01:01:16;4.95;;;4.43;;
56657;SDS011;42530;52.240;19.354;2022-09-01T01:03:42;5.07;;;4.57;;
56657;SDS011;42530;52.240;19.354;2022-09-01T01:06:11;5.13;;;4.80;;
56657;SDS011;42530;52.240;19.354;2022-09-01T01:08:41;5.18;;;4.75;;
56657;SDS011;42530;52.240;19.354;2022-09-01T01:11:22;5.85;;;5.35;;
56657;SDS011;42530;52.240;19.354;2022-09-01T01:13:50;4.90;;;4.57;;
56657;SDS011;42530;52.240;19.354;2022-09-01T01:16:18;6.75;;;6.03;;
56657;SDS011;42530;52.240;19.354;2022-09-01T01:18:45;4.95;;;4.65;;
56657;SDS011;42530;52.240;19.354;2022-09-01T01:21:17;5.43;;;5.03;;
56657;SDS011;42530;52.240;19.354;2022-09-01T01:26:34;5.70;;;5.22;;
56657;SDS011;42530;52.240;19.354;2022-09-01T01:29:01;5.45;;;4.80;;
56657;SDS011;42530;52.240;19.354;2022-09-01T01:31:28;5.45;;;4.85;;
56657;SDS011;42530;52.240;19.354;2022-09-01T01:33:54;5.35;;;4.95;;
56657;SDS011;42530;52.240;19.354;2022-09-01T01:36:23;5.55;;;5.15;;
56657;SDS011;42530;52.240;19.354;2022-09-01T01:39:00;5.20;;;4.70;;
56657;SDS011;42530;52.240;19.354;2022-09-01T01:41:28;5.68;;;5.13;;
56657;SDS011;42530;52.240;19.354;2022-09-01T01:43:57;6.03;;;5.53;;
56657;SDS011;42530;52.240;19.354;2022-09-01T01:46:24;5.72;;;5.20;;
56657;SDS011;42530;52.240;19.354;2022-09-01T01:48:50;6.38;;;5.88;;
56657;SDS011;42530;52.240;19.354;2022-09-01T01:51:18;5.85;;;5.40;;
56657;SDS011;42530;52.240;19.354;2022-09-01T01:53:49;12.95;;;5.47;;
56657;SDS011;42530;52.240;19.354;2022-09-01T01:56:17;5.70;;;5.22;;
56657;SDS011;42530;52.240;19.354;2022-09-01T01:58:44;11.05;;;5.85;;
56657;SDS011;42530;52.240;19.354;2022-09-01T02:01:10;7.40;;;6.50;;
56657;SDS011;42530;52.240;19.354;2022-09-01T02:03:36;5.65;;;5.15;;
56657;SDS011;42530;52.240;19.354;2022-09-01T02:06:03;5.55;;;5.05;;
56657;SDS011;42530;52.240;19.354;2022-09-01T02:08:34;4.47;;;4.18;;
56657;SDS011;42530;52.240;19.354;2022-09-01T02:11:02;5.45;;;5.05;;
56657;SDS011;42530;52.240;19.354;2022-09-01T02:13:29;4.82;;;4.45;;
56657;SDS011;42530;52.240;19.354;2022-09-01T02:15:56;5.65;;;5.05;;
56657;SDS011;42530;52.240;19.354;2022-09-01T02:18:29;5.35;;;4.80;;
56657;SDS011;42530;52.240;19.354;2022-09-01T02:20:59;4.50;;;4.10;;
56657;SDS011;42530;52.240;19.354;2022-09-01T02:23:25;5.18;;;4.78;;
56657;SDS011;42530;52.240;19.354;2022-09-01T02:25:51;8.68;;;5.13;;
56657;SDS011;42530;52.240;19.354;2022-09-01T02:28:19;6.20;;;5.80;;
56657;SDS011;42530;52.240;19.354;2022-09-01T02:30:51;6.65;;;6.25;;
56657;SDS011;42530;52.240;19.354;2022-09-01T02:33:19;6.68;;;6.18;;
56657;SDS011;42530;52.240;19.354;2022-09-01T02:35:47;6.43;;;5.97;;
56657;SDS011;42530;52.240;19.354;2022-09-01T02:38:18;6.80;;;6.22;;
56657;SDS011;42530;52.240;19.354;2022-09-01T02:40:46;6.45;;;6.00;;
56657;SDS011;42530;52.240;19.354;2022-09-01T02:43:13;6.93;;;5.97;;
56657;SDS011;42530;52.240;19.354;2022-09-01T02:45:45;6.25;;;5.75;;
56657;SDS011;42530;52.240;19.354;2022-09-01T02:48:12;5.53;;;4.60;;
56657;SDS011;42530;52.240;19.354;2022-09-01T02:50:39;5.88;;;5.50;;
56657;SDS011;42530;52.240;19.354;2022-09-01T02:53:06;6.18;;;4.55;;
56657;SDS011;42530;52.240;19.354;2022-09-01T02:55:35;6.88;;;5.28;;
56657;SDS011;42530;52.240;19.354;2022-09-01T02:58:01;5.88;;;5.40;;
56657;SDS011;42530;52.240;19.354;2022-09-01T03:00:27;6.30;;;5.80;;
56657;SDS011;42530;52.240;19.354;2022-09-01T03:02:58;5.90;;;5.20;;
56657;SDS011;42530;52.240;19.354;2022-09-01T03:05:27;4.90;;;4.50;;
56657;SDS011;42530;52.240;19.354;2022-09-01T03:07:55;8.23;;;5.32;;
56657;SDS011;42530;52.240;19.354;2022-09-01T03:10:24;4.40;;;4.10;;
56657;SDS011;42530;52.240;19.354;2022-09-01T03:12:54;5.60;;;5.15;;
56657;SDS011;42530;52.240;19.354;2022-09-01T03:15:20;4.93;;;4.53;;
56657;SDS011;42530;52.240;19.354;2022-09-01T03:17:47;6.47;;;4.72;;
56657;SDS011;42530;52.240;19.354;2022-09-01T03:20:13;4.43;;;4.03;;
56657;SDS011;42530;52.240;19.354;2022-09-01T03:22:40;4.40;;;4.00;;
56657;SDS011;42530;52.240;19.354;2022-09-01T03:25:07;5.00;;;4.35;;
56657;SDS011;42530;52.240;19.354;2022-09-01T03:27:33;4.25;;;3.95;;
56657;SDS011;42530;52.240;19.354;2022-09-01T03:29:59;4.43;;;4.13;;
56657;SDS011;42530;52.240;19.354;2022-09-01T03:32:24;4.72;;;4.40;;
56657;SDS011;42530;52.240;19.354;2022-09-01T03:34:50;5.32;;;4.88;;
56657;SDS011;42530;52.240;19.354;2022-09-01T03:37:15;4.88;;;4.57;;
56657;SDS011;42530;52.240;19.354;2022-09-01T03:39:41;5.13;;;4.63;;
56657;SDS011;42530;52.240;19.354;2022-09-01T03:42:07;5.65;;;4.35;;
56657;SDS011;42530;52.240;19.354;2022-09-01T03:44:36;5.45;;;4.30;;
56657;SDS011;42530;52.240;19.354;2022-09-01T03:47:05;4.32;;;4.10;;
56657;SDS011;42530;52.240;19.354;2022-09-01T03:49:35;5.22;;;4.60;;
56657;SDS011;42530;52.240;19.354;2022-09-01T03:52:03;4.68;;;4.28;;
56657;SDS011;42530;52.240;19.354;2022-09-01T03:54:31;5.50;;;5.13;;
56657;SDS011;42530;52.240;19.354;2022-09-01T03:56:57;4.75;;;4.35;;
56657;SDS011;42530;52.240;19.354;2022-09-01T03:59:25;5.03;;;4.55;;
56657;SDS011;42530;52.240;19.354;2022-09-01T04:01:52;5.43;;;4.93;;
56657;SDS011;42530;52.240;19.354;2022-09-01T04:04:18;5.68;;;5.13;;
56657;SDS011;42530;52.240;19.354;2022-09-01T04:06:44;5.30;;;4.90;;
56657;SDS011;42530;52.240;19.354;2022-09-01T04:09:10;5.97;;;4.53;;
56657;SDS011;42530;52.240;19.354;2022-09-01T04:11:37;5.25;;;4.82;;
56657;SDS011;42530;52.240;19.354;2022-09-01T04:14:03;6.15;;;5.65;;
56657;SDS011;42530;52.240;19.354;2022-09-01T04:16:31;5.65;;;5.18;;
56657;SDS011;42530;52.240;19.354;2022-09-01T04:19:19;5.35;;;4.97;;
56657;SDS011;42530;52.240;19.354;2022-09-01T04:21:50;5.13;;;4.72;;
56657;SDS011;42530;52.240;19.354;2022-09-01T04:24:19;4.75;;;4.32;;
56657;SDS011;42530;52.240;19.354;2022-09-01T04:26:48;5.10;;;4.70;;
56657;SDS011;42530;52.240;19.354;2022-09-01T04:29:14;5.20;;;4.72;;
56657;SDS011;42530;52.240;19.354;2022-09-01T04:31:42;6.50;;;5.25;;
56657;SDS011;42530;52.240;19.354;2022-09-01T04:34:08;4.70;;;4.40;;
56657;SDS011;42530;52.240;19.354;2022-09-01T04:36:37;5.25;;;4.88;;
56657;SDS011;42530;52.240;19.354;2022-09-01T04:39:05;4.30;;;3.97;;
56657;SDS011;42530;52.240;19.354;2022-09-01T04:41:34;5.75;;;5.18;;
56657;SDS011;42530;52.240;19.354;2022-09-01T04:44:02;4.43;;;4.03;;
56657;SDS011;42530;52.240;19.354;2022-09-01T04:46:29;4.85;;;4.22;;
56657;SDS011;42530;52.240;19.354;2022-09-01T04:49:00;5.72;;;5.30;;
56657;SDS011;42530;52.240;19.354;2022-09-01T04:51:36;4.93;;;4.53;;
56657;SDS011;42530;52.240;19.354;2022-09-01T04:54:03;5.30;;;4.80;;
56657;SDS011;42530;52.240;19.354;2022-09-01T04:56:33;12.95;;;6.15;;
56657;SDS011;42530;52.240;19.354;2022-09-01T04:58:59;7.88;;;5.53;;
56657;SDS011;42530;52.240;19.354;2022-09-01T05:01:25;5.90;;;5.50;;
56657;SDS011;42530;52.240;19.354;2022-09-01T05:03:52;6.65;;;5.07;;
56657;SDS011;42530;52.240;19.354;2022-09-01T05:06:25;5.93;;;5.53;;
56657;SDS011;42530;52.240;19.354;2022-09-01T05:08:52;6.50;;;5.90;;
56657;SDS011;42530;52.240;19.354;2022-09-01T05:11:18;8.80;;;6.18;;
56657;SDS011;42530;52.240;19.354;2022-09-01T05:13:45;6.68;;;6.05;;
56657;SDS011;42530;52.240;19.354;2022-09-01T05:16:13;10.85;;;7.82;;
56657;SDS011;42530;52.240;19.354;2022-09-01T05:18:41;6.80;;;6.10;;
56657;SDS011;42530;52.240;19.354;2022-09-01T05:21:11;8.82;;;7.88;;
56657;SDS011;42530;52.240;19.354;2022-09-01T05:23:40;7.32;;;6.72;;
56657;SDS011;42530;52.240;19.354;2022-09-01T05:26:14;6.63;;;6.10;;
56657;SDS011;42530;52.240;19.354;2022-09-01T05:28:43;7.17;;;6.50;;
56657;SDS011;42530;52.240;19.354;2022-09-01T05:31:12;5.88;;;5.28;;
56657;SDS011;42530;52.240;19.354;2022-09-01T05:33:44;7.10;;;5.07;;
56657;SDS011;42530;52.240;19.354;2022-09-01T05:36:13;9.77;;;5.10;;
56657;SDS011;42530;52.240;19.354;2022-09-01T05:38:44;11.77;;;5.45;;
56657;SDS011;42530;52.240;19.354;2022-09-01T05:41:12;6.70;;;5.03;;
56657;SDS011;42530;52.240;19.354;2022-09-01T05:43:45;4.53;;;4.13;;
56657;SDS011;42530;52.240;19.354;2022-09-01T05:46:15;5.40;;;4.93;;
56657;SDS011;42530;52.240;19.354;2022-09-01T05:48:45;5.30;;;4.63;;
56657;SDS011;42530;52.240;19.354;2022-09-01T05:51:14;4.88;;;4.47;;
56657;SDS011;42530;52.240;19.354;2022-09-01T05:53:42;4.75;;;4.45;;
56657;SDS011;42530;52.240;19.354;2022-09-01T05:56:08;5.40;;;3.83;;
56657;SDS011;42530;52.240;19.354;2022-09-01T05:58:39;3.38;;;3.08;;
56657;SDS011;42530;52.240;19.354;2022-09-01T06:01:08;4.47;;;3.05;;
56657;SDS011;42530;52.240;19.354;2022-09-01T06:03:35;4.03;;;2.75;;
56657;SDS011;42530;52.240;19.354;2022-09-01T06:06:05;3.92;;;3.47;;
56657;SDS011;42530;52.240;19.354;2022-09-01T06:08:34;5.90;;;3.47;;
56657;SDS011;42530;52.240;19.354;2022-09-01T06:11:00;3.25;;;3.05;;
56657;SDS011;42530;52.240;19.354;2022-09-01T06:13:27;3.08;;;2.88;;
56657;SDS011;42530;52.240;19.354;2022-09-01T06:15:53;3.15;;;2.47;;
56657;SDS011;42530;52.240;19.354;2022-09-01T06:18:19;3.47;;;2.78;;
56657;SDS011;42530;52.240;19.354;2022-09-01T06:20:46;3.25;;;2.97;;
56657;SDS011;42530;52.240;19.354;2022-09-01T06:23:13;4.15;;;2.97;;
56657;SDS011;42530;52.240;19.354;2022-09-01T06:25:42;3.42;;;3.13;;
56657;SDS011;42530;52.240;19.354;2022-09-01T06:28:14;3.03;;;2.63;;
56657;SDS011;42530;52.240;19.354;2022-09-01T06:30:41;3.80;;;2.20;;
56657;SDS011;42530;52.240;19.354;2022-09-01T06:33:08;3.78;;;2.78;;
56657;SDS011;42530;52.240;19.354;2022-09-01T06:35:35;2.70;;;2.50;;
56657;SDS011;42530;52.240;19.354;2022-09-01T06:38:03;3.97;;;2.70;;
56657;SDS011;42530;52.240;19.354;2022-09-01T06:40:31;2.00;;;1.90;;
56657;SDS011;42530;52.240;19.354;2022-09-01T06:42:58;1.67;;;1.58;;
56657;SDS011;42530;52.240;19.354;2022-09-01T06:45:27;6.18;;;2.72;;
56657;SDS011;42530;52.240;19.354;2022-09-01T06:47:52;3.28;;;2.47;;
56657;SDS011;42530;52.240;19.354;2022-09-01T06:50:20;2.67;;;2.15;;
56657;SDS011;42530;52.240;19.354;2022-09-01T06:52:47;2.08;;;1.98;;
56657;SDS011;42530;52.240;19.354;2022-09-01T06:55:25;4.25;;;3.85;;
56657;SDS011;42530;52.240;19.354;2022-09-01T06:57:57;2.70;;;1.73;;
56657;SDS011;42530;52.240;19.354;2022-09-01T07:00:23;2.28;;;2.08;;
56657;SDS011;42530;52.240;19.354;2022-09-01T07:02:54;3.10;;;2.00;;
56657;SDS011;42530;52.240;19.354;2022-09-01T07:05:21;3.15;;;1.65;;
56657;SDS011;42530;52.240;19.354;2022-09-01T07:07:48;1.83;;;1.73;;
56657;SDS011;42530;52.240;19.354;2022-09-01T07:10:23;4.13;;;1.77;;
56657;SDS011;42530;52.240;19.354;2022-09-01T07:12:53;4.57;;;1.70;;
56657;SDS011;42530;52.240;19.354;2022-09-01T07:15:21;2.55;;;2.20;;
56657;SDS011;42530;52.240;19.354;2022-09-01T07:17:48;3.00;;;2.55;;
56657;SDS011;42530;52.240;19.354;2022-09-01T07:20:17;2.00;;;1.90;;
56657;SDS011;42530;52.240;19.354;2022-09-01T07:22:46;2.50;;;1.55;;
56657;SDS011;42530;52.240;19.354;2022-09-01T07:25:12;2.90;;;1.60;;
56657;SDS011;42530;52.240;19.354;2022-09-01T07:27:38;1.58;;;1.48;;
56657;SDS011;42530;52.240;19.354;2022-09-01T07:30:06;1.13;;;1.00;;
56657;SDS011;42530;52.240;19.354;2022-09-01T07:32:36;1.20;;;1.20;;
56657;SDS011;42530;52.240;19.354;2022-09-01T07:35:04;2.15;;;1.50;;
56657;SDS011;42530;52.240;19.354;2022-09-01T07:37:30;1.60;;;1.30;;
56657;SDS011;42530;52.240;19.354;2022-09-01T07:39:56;2.63;;;1.55;;
56657;SDS011;42530;52.240;19.354;2022-09-01T07:42:22;3.42;;;2.08;;
56657;SDS011;42530;52.240;19.354;2022-09-01T07:44:48;1.52;;;1.42;;
56657;SDS011;42530;52.240;19.354;2022-09-01T07:47:18;1.75;;;1.30;;
56657;SDS011;42530;52.240;19.354;2022-09-01T07:49:43;0.98;;;0.98;;
56657;SDS011;42530;52.240;19.354;2022-09-01T07:52:14;1.92;;;1.83;;
56657;SDS011;42530;52.240;19.354;2022-09-01T07:54:42;5.97;;;2.80;;
56657;SDS011;42530;52.240;19.354;2022-09-01T07:57:07;2.20;;;2.08;;
56657;SDS011;42530;52.240;19.354;2022-09-01T07:59:33;0.98;;;0.90;;
56657;SDS011;42530;52.240;19.354;2022-09-01T08:01:59;1.50;;;1.40;;
56657;SDS011;42530;52.240;19.354;2022-09-01T08:04:29;0.93;;;0.93;;
56657;SDS011;42530;52.240;19.354;2022-09-01T08:06:56;1.02;;;1.02;;
56657;SDS011;42530;52.240;19.354;2022-09-01T08:09:22;1.60;;;1.50;;
56657;SDS011;42530;52.240;19.354;2022-09-01T08:11:47;2.55;;;1.20;;
56657;SDS011;42530;52.240;19.354;2022-09-01T08:14:13;3.40;;;1.77;;
56657;SDS011;42530;52.240;19.354;2022-09-01T08:16:39;3.35;;;1.80;;
56657;SDS011;42530;52.240;19.354;2022-09-01T08:19:05;5.95;;;3.15;;
56657;SDS011;42530;52.240;19.354;2022-09-01T08:21:31;0.70;;;0.70;;
56657;SDS011;42530;52.240;19.354;2022-09-01T08:23:56;1.13;;;1.13;;
56657;SDS011;42530;52.240;19.354;2022-09-01T08:26:23;1.55;;;1.17;;
56657;SDS011;42530;52.240;19.354;2022-09-01T08:28:50;0.85;;;0.82;;
56657;SDS011;42530;52.240;19.354;2022-09-01T08:31:17;1.10;;;1.10;;
56657;SDS011;42530;52.240;19.354;2022-09-01T08:33:47;1.02;;;1.00;;
56657;SDS011;42530;52.240;19.354;2022-09-01T08:36:13;0.50;;;0.50;;
56657;SDS011;42530;52.240;19.354;2022-09-01T08:38:41;2.17;;;0.70;;
56657;SDS011;42530;52.240;19.354;2022-09-01T08:41:23;0.85;;;0.85;;
56657;SDS011;42530;52.240;19.354;2022-09-01T08:43:59;0.70;;;0.70;;
56657;SDS011;42530;52.240;19.354;2022-09-01T08:46:36;0.65;;;0.65;;
56657;SDS011;42530;52.240;19.354;2022-09-01T08:49:09;0.93;;;0.75;;
56657;SDS011;42530;52.240;19.354;2022-09-01T08:51:44;1.48;;;1.10;;
56657;SDS011;42530;52.240;19.354;2022-09-01T08:57:16;0.85;;;0.85;;
56657;SDS011;42530;52.240;19.354;2022-09-01T09:00:04;0.80;;;0.75;;
56657;SDS011;42530;52.240;19.354;2022-09-01T09:07:32;2.00;;;1.48;;
56657;SDS011;42530;52.240;19.354;2022-09-01T09:15:55;1.85;;;1.33;;
56657;SDS011;42530;52.240;19.354;2022-09-01T09:21:15;2.38;;;1.13;;
56657;SDS011;42530;52.240;19.354;2022-09-01T09:23:46;0.65;;;0.65;;
56657;SDS011;42530;52.240;19.354;2022-09-01T09:26:14;1.60;;;1.15;;
56657;SDS011;42530;52.240;19.354;2022-09-01T09:28:42;1.08;;;0.90;;
56657;SDS011;42530;52.240;19.354;2022-09-01T09:33:57;1.60;;;1.27;;
56657;SDS011;42530;52.240;19.354;2022-09-01T09:36:28;27.25;;;24.60;;
56657;SDS011;42530;52.240;19.354;2022-09-01T09:39:08;2.33;;;2.03;;
56657;SDS011;42530;52.240;19.354;2022-09-01T09:41:41;1.20;;;1.20;;
56657;SDS011;42530;52.240;19.354;2022-09-01T09:46:54;1.27;;;1.27;;
56657;SDS011;42530;52.240;19.354;2022-09-01T09:52:30;0.68;;;0.60;;
56657;SDS011;42530;52.240;19.354;2022-09-01T09:54:57;0.73;;;0.73;;
56657;SDS011;42530;52.240;19.354;2022-09-01T09:57:23;0.85;;;0.70;;
56657;SDS011;42530;52.240;19.354;2022-09-01T10:08:06;0.70;;;0.70;;
56657;SDS011;42530;52.240;19.354;2022-09-01T10:10:44;1.05;;;0.50;;
56657;SDS011;42530;52.240;19.354;2022-09-01T10:13:14;0.60;;;0.60;;
56657;SDS011;42530;52.240;19.354;2022-09-01T10:15:51;0.68;;;0.68;;
56657;SDS011;42530;52.240;19.354;2022-09-01T10:18:20;0.47;;;0.47;;
56657;SDS011;42530;52.240;19.354;2022-09-01T10:20:53;0.75;;;0.70;;
56657;SDS011;42530;52.240;19.354;2022-09-01T10:23:22;0.93;;;0.88;;
56657;SDS011;42530;52.240;19.354;2022-09-01T10:25:49;1.80;;;0.82;;
56657;SDS011;42530;52.240;19.354;2022-09-01T10:28:20;0.68;;;0.68;;
56657;SDS011;42530;52.240;19.354;2022-09-01T10:30:48;0.98;;;0.88;;
56657;SDS011;42530;52.240;19.354;2022-09-01T10:33:17;0.82;;;0.82;;
56657;SDS011;42530;52.240;19.354;2022-09-01T10:35:45;1.58;;;0.75;;
56657;SDS011;42530;52.240;19.354;2022-09-01T10:38:18;1.98;;;1.42;;
56657;SDS011;42530;52.240;19.354;2022-09-01T10:40:47;1.05;;;1.05;;
56657;SDS011;42530;52.240;19.354;2022-09-01T10:48:54;0.90;;;0.90;;
56657;SDS011;42530;52.240;19.354;2022-09-01T10:53:57;0.80;;;0.80;;
56657;SDS011;42530;52.240;19.354;2022-09-01T10:56:43;0.93;;;0.90;;
56657;SDS011;42530;52.240;19.354;2022-09-01T11:06:59;0.50;;;0.50;;
56657;SDS011;42530;52.240;19.354;2022-09-01T11:09:34;0.70;;;0.70;;
56657;SDS011;42530;52.240;19.354;2022-09-01T11:14:56;0.88;;;0.68;;
56657;SDS011;42530;52.240;19.354;2022-09-01T11:17:25;0.80;;;0.70;;
56657;SDS011;42530;52.240;19.354;2022-09-01T11:22:42;0.77;;;0.68;;
56657;SDS011;42530;52.240;19.354;2022-09-01T11:25:52;1.08;;;1.08;;
56657;SDS011;42530;52.240;19.354;2022-09-01T11:31:27;0.70;;;0.68;;
56657;SDS011;42530;52.240;19.354;2022-09-01T11:44:10;1.60;;;0.90;;
56657;SDS011;42530;52.240;19.354;2022-09-01T11:46:40;0.90;;;0.90;;
56657;SDS011;42530;52.240;19.354;2022-09-01T11:49:22;7.35;;;1.70;;
56657;SDS011;42530;52.240;19.354;2022-09-01T11:51:49;1.20;;;1.20;;
56657;SDS011;42530;52.240;19.354;2022-09-01T11:54:15;1.55;;;0.98;;
56657;SDS011;42530;52.240;19.354;2022-09-01T11:56:41;0.90;;;0.57;;
56657;SDS011;42530;52.240;19.354;2022-09-01T11:59:06;0.63;;;0.63;;
56657;SDS011;42530;52.240;19.354;2022-09-01T12:01:33;3.35;;;0.70;;
56657;SDS011;42530;52.240;19.354;2022-09-01T12:04:20;0.55;;;0.55;;
56657;SDS011;42530;52.240;19.354;2022-09-01T12:06:59;0.80;;;0.80;;
56657;SDS011;42530;52.240;19.354;2022-09-01T12:09:40;0.75;;;0.75;;
56657;SDS011;42530;52.240;19.354;2022-09-01T12:12:31;1.65;;;0.63;;
56657;SDS011;42530;52.240;19.354;2022-09-01T12:14:58;1.23;;;0.60;;
56657;SDS011;42530;52.240;19.354;2022-09-01T12:17:32;0.55;;;0.50;;
56657;SDS011;42530;52.240;19.354;2022-09-01T12:20:20;0.50;;;0.50;;
56657;SDS011;42530;52.240;19.354;2022-09-01T12:22:47;0.75;;;0.75;;
56657;SDS011;42530;52.240;19.354;2022-09-01T12:25:17;0.88;;;0.70;;
56657;SDS011;42530;52.240;19.354;2022-09-01T12:27:46;1.42;;;0.80;;
56657;SDS011;42530;52.240;19.354;2022-09-01T12:30:12;0.93;;;0.90;;
56657;SDS011;42530;52.240;19.354;2022-09-01T12:32:41;0.60;;;0.60;;
56657;SDS011;42530;52.240;19.354;2022-09-01T12:35:19;0.90;;;0.80;;
56657;SDS011;42530;52.240;19.354;2022-09-01T12:37:50;1.15;;;0.90;;
56657;SDS011;42530;52.240;19.354;2022-09-01T12:42:59;0.85;;;0.85;;
56657;SDS011;42530;52.240;19.354;2022-09-01T12:45:43;1.48;;;1.00;;
56657;SDS011;42530;52.240;19.354;2022-09-01T12:48:33;0.73;;;0.65;;
56657;SDS011;42530;52.240;19.354;2022-09-01T12:53:50;1.45;;;1.00;;
56657;SDS011;42530;52.240;19.354;2022-09-01T12:56:31;1.15;;;1.15;;
56657;SDS011;42530;52.240;19.354;2022-09-01T13:01:32;2.83;;;1.30;;
56657;SDS011;42530;52.240;19.354;2022-09-01T13:04:09;1.33;;;1.15;;
56657;SDS011;42530;52.240;19.354;2022-09-01T13:06:51;1.60;;;1.50;;
56657;SDS011;42530;52.240;19.354;2022-09-01T13:09:31;1.35;;;1.10;;
56657;SDS011;42530;52.240;19.354;2022-09-01T13:12:10;4.30;;;1.85;;
56657;SDS011;42530;52.240;19.354;2022-09-01T13:14:41;1.88;;;1.40;;
56657;SDS011;42530;52.240;19.354;2022-09-01T13:17:07;0.95;;;0.95;;
56657;SDS011;42530;52.240;19.354;2022-09-01T13:19:32;1.17;;;1.05;;
56657;SDS011;42530;52.240;19.354;2022-09-01T13:21:58;1.20;;;1.10;;
56657;SDS011;42530;52.240;19.354;2022-09-01T13:24:24;1.50;;;0.90;;
56657;SDS011;42530;52.240;19.354;2022-09-01T13:26:50;0.90;;;0.70;;
56657;SDS011;42530;52.240;19.354;2022-09-01T13:29:22;0.90;;;0.90;;
56657;SDS011;42530;52.240;19.354;2022-09-01T13:31:50;2.42;;;1.15;;
56657;SDS011;42530;52.240;19.354;2022-09-01T13:34:16;1.45;;;1.35;;
56657;SDS011;42530;52.240;19.354;2022-09-01T13:36:41;1.80;;;0.80;;
56657;SDS011;42530;52.240;19.354;2022-09-01T13:39:07;1.00;;;0.73;;
56657;SDS011;42530;52.240;19.354;2022-09-01T13:41:32;0.65;;;0.63;;
56657;SDS011;42530;52.240;19.354;2022-09-01T13:43:58;0.85;;;0.77;;
56657;SDS011;42530;52.240;19.354;2022-09-01T13:46:24;1.10;;;0.90;;
56657;SDS011;42530;52.240;19.354;2022-09-01T13:48:49;0.52;;;0.50;;
56657;SDS011;42530;52.240;19.354;2022-09-01T13:51:25;0.75;;;0.75;;
56657;SDS011;42530;52.240;19.354;2022-09-01T13:53:51;0.73;;;0.73;;
56657;SDS011;42530;52.240;19.354;2022-09-01T13:56:17;0.38;;;0.38;;
56657;SDS011;42530;52.240;19.354;2022-09-01T13:58:43;0.63;;;0.60;;
56657;SDS011;42530;52.240;19.354;2022-09-01T14:01:08;0.85;;;0.85;;
56657;SDS011;42530;52.240;19.354;2022-09-01T14:03:36;0.75;;;0.63;;
56657;SDS011;42530;52.240;19.354;2022-09-01T14:06:02;0.50;;;0.50;;
56657;SDS011;42530;52.240;19.354;2022-09-01T14:08:27;0.73;;;0.73;;
56657;SDS011;42530;52.240;19.354;2022-09-01T14:10:53;0.60;;;0.60;;
56657;SDS011;42530;52.240;19.354;2022-09-01T14:13:22;0.57;;;0.57;;
56657;SDS011;42530;52.240;19.354;2022-09-01T14:15:48;0.55;;;0.55;;
56657;SDS011;42530;52.240;19.354;2022-09-01T14:18:17;1.00;;;0.70;;
56657;SDS011;42530;52.240;19.354;2022-09-01T14:20:46;0.80;;;0.80;;
56657;SDS011;42530;52.240;19.354;2022-09-01T14:23:15;0.73;;;0.70;;
56657;SDS011;42530;52.240;19.354;2022-09-01T14:25:45;0.98;;;0.73;;
56657;SDS011;42530;52.240;19.354;2022-09-01T14:28:13;1.02;;;0.73;;
56657;SDS011;42530;52.240;19.354;2022-09-01T14:30:40;0.80;;;0.60;;
56657;SDS011;42530;52.240;19.354;2022-09-01T14:33:07;0.95;;;0.90;;
56657;SDS011;42530;52.240;19.354;2022-09-01T14:35:36;0.85;;;0.75;;
56657;SDS011;42530;52.240;19.354;2022-09-01T14:38:03;0.52;;;0.52;;
56657;SDS011;42530;52.240;19.354;2022-09-01T14:40:31;1.40;;;1.08;;
56657;SDS011;42530;52.240;19.354;2022-09-01T14:42:58;1.48;;;1.20;;
56657;SDS011;42530;52.240;19.354;2022-09-01T14:45:25;0.80;;;0.80;;
56657;SDS011;42530;52.240;19.354;2022-09-01T14:47:54;0.95;;;0.85;;
56657;SDS011;42530;52.240;19.354;2022-09-01T14:50:22;1.30;;;1.10;;
56657;SDS011;42530;52.240;19.354;2022-09-01T14:52:50;1.65;;;0.82;;
56657;SDS011;42530;52.240;19.354;2022-09-01T14:55:18;0.60;;;0.60;;
56657;SDS011;42530;52.240;19.354;2022-09-01T14:57:45;0.77;;;0.77;;
56657;SDS011;42530;52.240;19.354;2022-09-01T15:00:11;0.60;;;0.60;;
56657;SDS011;42530;52.240;19.354;2022-09-01T15:02:40;0.60;;;0.60;;
56657;SDS011;42530;52.240;19.354;2022-09-01T15:05:08;0.90;;;0.90;;
56657;SDS011;42530;52.240;19.354;2022-09-01T15:07:34;0.50;;;0.50;;
56657;SDS011;42530;52.240;19.354;2022-09-01T15:10:00;0.60;;;0.60;;
56657;SDS011;42530;52.240;19.354;2022-09-01T15:12:26;0.52;;;0.50;;
56657;SDS011;42530;52.240;19.354;2022-09-01T15:14:58;0.60;;;0.60;;
56657;SDS011;42530;52.240;19.354;2022-09-01T15:17:25;1.30;;;1.20;;
56657;SDS011;42530;52.240;19.354;2022-09-01T15:19:52;0.73;;;0.57;;
56657;SDS011;42530;52.240;19.354;2022-09-01T15:22:18;0.90;;;0.90;;
56657;SDS011;42530;52.240;19.354;2022-09-01T15:24:43;0.82;;;0.55;;
56657;SDS011;42530;52.240;19.354;2022-09-01T15:27:09;0.65;;;0.65;;
56657;SDS011;42530;52.240;19.354;2022-09-01T15:29:36;0.70;;;0.70;;
56657;SDS011;42530;52.240;19.354;2022-09-01T15:32:12;0.60;;;0.60;;
56657;SDS011;42530;52.240;19.354;2022-09-01T15:34:37;0.77;;;0.50;;
56657;SDS011;42530;52.240;19.354;2022-09-01T15:37:03;1.08;;;0.98;;
56657;SDS011;42530;52.240;19.354;2022-09-01T15:39:29;1.88;;;1.08;;
56657;SDS011;42530;52.240;19.354;2022-09-01T15:41:55;2.72;;;1.25;;
56657;SDS011;42530;52.240;19.354;2022-09-01T15:44:21;0.80;;;0.80;;
56657;SDS011;42530;52.240;19.354;2022-09-01T15:46:47;0.82;;;0.82;;
56657;SDS011;42530;52.240;19.354;2022-09-01T15:49:12;1.52;;;0.88;;
56657;SDS011;42530;52.240;19.354;2022-09-01T15:51:42;1.85;;;0.77;;
56657;SDS011;42530;52.240;19.354;2022-09-01T15:54:13;0.98;;;0.85;;
56657;SDS011;42530;52.240;19.354;2022-09-01T15:56:40;1.13;;;0.98;;
56657;SDS011;42530;52.240;19.354;2022-09-01T15:59:07;1.00;;;0.80;;
56657;SDS011;42530;52.240;19.354;2022-09-01T16:01:34;1.00;;;0.73;;
56657;SDS011;42530;52.240;19.354;2022-09-01T16:04:04;1.08;;;1.08;;